LICT Informações do Aeroporto

Informações da Pista
Pista 13 Comprimento 8852 ft Largura 148 ft
Elevação 10 ft Limite 0 ft Heading 128
Pista 31 Comprimento 8852 ft Largura 148 ft
Elevação 24 ft Limite 820 ft Heading 308
Frequências do Aeroporto
Tipo APP Nome APP Frequência 36.23 MHZ
Tipo APP Nome APP Frequência 119.95 MHZ
Tipo GND Nome GND Frequência 39.685 MHZ
Tipo TWR Nome TWR Frequência 119.7 MHZ
Navaids do Aeroporto
Tipo VORTAC Nome Trapani Frequência 108800 KHZ
Tipo NDB Nome Trapani Frequência 318 KHZ
Informações meteorológicas do aeroporto e NOTAM
ADDS - METARS form results

(0229 UTC 22 September 2020)
Data provider http://aviationweather.gov/metar/data/
 
Forecast for: LICT (TRAPANI/BIRGI (A, IT)
Text: TAF LICT 220200Z 2203/2212 19008KT 9999 FEW040
Forecast period: 0300 to 1200 UTC 22 September 2020
Forecast type: FROM: standard forecast or significant change
Winds: from the S (190 degrees) at 9 MPH (8 knots; 4.1 m/s)
Visibility: 6 or more miles (10+ km)
Ceiling: at least 12,000 feet AGL
Clouds: few clouds at 4000 feet AGL
Weather: no significant weather forecast for this period